Time;durP1;ratioP1;P1;durP2;ratioP2;P2;SDS_P1;SDS_P2;PMS_P1;PMS_P2;Temp;Humidity;BMP_temperature;BMP_pressure;BME280_temperature;BME280_humidity;BME280_pressure;Samples;Min_cycle;Max_cycle;Signal;HPM_P1;HPM_P2
2022/07/16 00:01:26;;;;;;;3.60;1.50;;;;;;;-146.64;92.39;37733.56;5035261;28;20033;-72
2022/07/16 00:03:58;;;;;;;3.13;1.50;;;;;;;-146.64;92.32;37725.38;5058108;28;20025;-73
2022/07/16 00:06:25;;;;;;;3.10;1.88;;;;;;;-146.64;92.39;37737.66;5044654;28;20086;-74
2022/07/16 00:08:51;;;;;;;4.00;1.42;;;;;;;-146.64;92.21;37659.94;5052721;28;20105;-72
2022/07/16 00:11:17;;;;;;;3.45;1.20;;;;;;;-146.64;92.24;37803.13;5049711;28;20542;-73
2022/07/16 00:13:42;;;;;;;5.07;1.70;;;;;;;-146.64;92.33;37799.03;5047365;28;20080;-74
2022/07/16 00:16:08;;;;;;;7.80;1.43;;;;;;;-146.64;92.37;37794.94;5051640;28;20039;-73
2022/07/16 00:21:18;;;;;;;6.35;1.80;;;;;;;-146.64;92.80;37782.66;5046992;28;20056;-75
2022/07/16 00:23:43;;;;;;;1.83;1.17;;;;;;;-146.64;93.14;37774.50;5059732;28;20036;-73
2022/07/16 00:26:09;;;;;;;2.57;1.50;;;;;;;-146.64;93.74;37782.66;5067664;28;20449;-72
2022/07/16 00:28:34;;;;;;;10.53;1.70;;;;;;;-146.64;94.06;37702.88;5052231;28;20527;-73
2022/07/16 00:30:59;;;;;;;5.07;1.53;;;;;;;-146.64;94.18;37737.66;5064284;28;20111;-73
2022/07/16 00:33:25;;;;;;;1.47;1.30;;;;;;;-146.64;94.77;37758.13;5058496;28;20159;-72
2022/07/16 00:35:50;;;;;;;5.90;1.50;;;;;;;-146.64;95.00;37745.84;5051203;28;20033;-73
2022/07/16 00:38:15;;;;;;;7.93;2.30;;;;;;;-146.64;95.98;37700.84;5056561;28;20510;-75
2022/07/16 00:40:41;;;;;;;4.77;1.87;;;;;;;-146.64;96.12;37717.22;5066059;28;20043;-74
2022/07/16 00:43:11;;;;;;;3.83;1.80;;;;;;;-146.64;97.31;37670.16;5068916;28;20028;-74
2022/07/16 00:45:37;;;;;;;7.97;1.80;;;;;;;-146.64;97.97;37629.25;5066398;28;20020;-74
2022/07/16 00:48:02;;;;;;;5.17;1.80;;;;;;;-146.64;98.47;37631.28;5071083;28;20491;-73
2022/07/16 00:50:28;;;;;;;6.80;2.07;;;;;;;-146.64;99.22;37580.13;5064824;28;20028;-74
2022/07/16 00:52:54;;;;;;;2.40;1.80;;;;;;;-146.64;99.61;37569.91;5049228;28;20024;-73
2022/07/16 00:55:19;;;;;;;6.03;1.63;;;;;;;-146.64;100.00;37514.69;5050538;28;20039;-73
2022/07/16 00:57:45;;;;;;;4.43;1.87;;;;;;;-146.64;100.00;37365.34;5041662;28;20081;-73
2022/07/16 01:00:11;;;;;;;3.80;1.83;;;;;;;-146.64;100.00;37371.50;5065268;28;20498;-74
2022/07/16 01:02:36;;;;;;;4.25;1.50;;;;;;;-146.64;100.00;37365.34;5065017;28;20041;-74
2022/07/16 01:05:02;;;;;;;7.77;1.87;;;;;;;-146.64;100.00;37250.81;5065181;28;20424;-73
2022/07/16 01:07:28;;;;;;;12.33;2.60;;;;;;;-146.64;100.00;37230.34;5066157;28;20028;-74
2022/07/16 01:09:54;;;;;;;4.75;2.10;;;;;;;-146.64;100.00;37148.53;5046236;28;20112;-74
2022/07/16 01:12:20;;;;;;;6.85;2.60;;;;;;;-146.64;100.00;37050.34;5054319;28;20540;-73
2022/07/16 01:14:45;;;;;;;5.57;2.00;;;;;;;-146.64;100.00;37029.88;5036787;28;20033;-74
2022/07/16 01:17:11;;;;;;;3.80;2.40;;;;;;;-146.64;100.00;37097.38;5048399;28;20032;-73
2022/07/16 01:19:36;;;;;;;3.03;2.10;;;;;;;-146.64;100.00;37269.22;5033334;28;20024;-73
2022/07/16 01:22:02;;;;;;;5.60;2.97;;;;;;;-146.64;100.00;37529.00;5070385;28;20395;-72
2022/07/16 01:24:27;;;;;;;8.53;2.40;;;;;;;-146.64;100.00;38003.63;5050896;28;20059;-73
2022/07/16 01:26:52;;;;;;;4.07;2.00;;;;;;;-146.64;100.00;38846.63;5068839;28;20028;-73
2022/07/16 01:29:18;;;;;;;11.03;2.63;;;;;;;-146.64;100.00;39996.84;5047267;28;20119;-72
2022/07/16 01:31:43;;;;;;;8.87;2.37;;;;;;;-146.64;100.00;40725.63;5052612;28;20071;-72
2022/07/16 01:34:27;;;;;;;5.90;2.40;;;;;;;-146.64;100.00;43795.78;5051746;28;20068;-74
2022/07/16 01:36:54;;;;;;;11.00;2.47;;;;;;;-146.64;100.00;48135.75;5050091;28;20039;-75
2022/07/16 01:39:19;;;;;;;3.90;2.22;;;;;;;-146.64;100.00;54778.97;5049813;28;20099;-73
2022/07/16 01:41:56;;;;;;;11.03;2.43;;;;;;;-146.64;100.00;55041.97;5067285;28;20249;-73
2022/07/16 01:44:24;;;;;;;4.82;2.35;;;;;;;-146.64;100.00;56620.34;5036814;28;20523;-73
2022/07/16 01:46:50;;;;;;;8.43;2.85;;;;;;;-146.64;100.00;62413.09;5033239;28;20028;-73
2022/07/16 01:49:15;;;;;;;5.67;2.40;;;;;;;-146.64;100.00;62676.59;5049522;28;20029;-73
2022/07/16 01:51:40;;;;;;;5.10;2.57;;;;;;;-146.64;100.00;66895.09;5031801;28;20021;-75
2022/07/16 01:54:06;;;;;;;7.33;2.87;;;;;;;-146.64;100.00;68478.19;5069412;28;20028;-74
2022/07/16 01:56:31;;;;;;;4.87;2.87;;;;;;;-146.64;100.00;71118.06;5051701;28;20060;-74
2022/07/16 01:58:56;;;;;;;8.10;3.23;;;;;;;-146.64;100.00;72174.50;5058363;28;20035;-74
2022/07/16 02:01:22;;;;;;;4.63;2.60;;;;;;;-146.64;100.00;75609.88;5050906;28;20037;-74
2022/07/16 02:03:47;;;;;;;4.90;2.83;;;;;;;-146.64;100.00;76667.50;5069358;28;20388;-72
2022/07/16 02:06:13;;;;;;;8.57;2.70;;;;;;;-146.64;100.00;77725.41;5068569;28;20392;-73
2022/07/16 02:08:38;;;;;;;4.50;2.93;;;;;;;-146.64;100.00;79048.19;5065853;28;20067;-72
2022/07/16 02:11:04;;;;;;;9.63;3.43;;;;;;;-146.64;100.00;79048.19;5048775;28;20533;-73
2022/07/16 02:13:29;;;;;;;10.13;3.30;;;;;;;-146.64;100.00;79842.06;5030199;28;20025;-73
2022/07/16 02:15:55;;;;;;;11.27;3.40;;;;;;;-146.64;100.00;81695.03;5067599;28;20089;-73
2022/07/16 02:18:20;;;;;;;10.23;3.63;;;;;;;-146.64;100.00;82754.28;5050949;28;20116;-74
2022/07/16 02:20:46;;;;;;;10.03;3.63;;;;;;;-146.64;100.00;82224.63;5041587;28;20033;-74
2022/07/16 02:23:11;;;;;;;8.77;3.40;;;;;;;-146.64;100.00;83548.88;5039943;28;20075;-73
2022/07/16 02:25:36;;;;;;;6.10;3.20;;;;;;;-146.64;100.00;84078.72;5048637;28;20494;-73
2022/07/16 02:28:06;;;;;;;5.07;3.43;;;;;;;-146.64;100.00;83284.00;5065166;28;20474;-74
2022/07/16 02:30:33;;;;;;;6.57;2.92;;;;;;;-146.64;100.00;84343.66;5056721;28;20607;-74
2022/07/16 02:32:58;;;;;;;;;;;;;;;-146.64;100.00;85668.59;5053995;28;20035;-73
2022/07/16 02:35:23;;;;;;;3.97;2.70;;;;;;;-146.64;100.00;85933.66;5050913;28;19917;-74
2022/07/16 02:37:49;;;;;;;9.90;3.60;;;;;;;-146.64;100.00;87524.28;5041464;28;20037;-72
2022/07/16 02:40:14;;;;;;;7.63;3.30;;;;;;;-146.64;100.00;87259.13;5049864;28;20456;-74
2022/07/16 02:42:40;;;;;;;5.83;3.10;;;;;;;-146.64;100.00;87524.28;5071567;28;20036;-74
2022/07/16 02:45:07;;;;;;;10.90;2.90;;;;;;;-146.64;100.00;86198.72;5054535;28;20107;-74
2022/07/16 02:47:33;;;;;;;8.75;2.75;;;;;;;-146.64;100.00;86463.78;5073222;28;20024;-74
2022/07/16 02:49:58;;;;;;;7.03;2.90;;;;;;;-146.64;100.00;85403.56;5049216;28;20500;-73
2022/07/16 02:52:24;;;;;;;5.53;2.33;;;;;;;-146.64;100.00;85403.56;5071794;28;20035;-72
2022/07/16 02:54:49;;;;;;;5.40;2.77;;;;;;;-146.64;100.00;85403.56;5065440;28;20031;-73
2022/07/16 02:57:14;;;;;;;12.13;2.67;;;;;;;-146.64;100.00;86728.88;5047327;28;20024;-73
2022/07/16 02:59:40;;;;;;;4.03;2.10;;;;;;;-146.64;100.00;86994.00;5018580;28;20503;-72
2022/07/16 03:02:06;;;;;;;6.40;2.07;;;;;;;-146.64;100.00;86994.00;5064838;28;20043;-73
2022/07/16 03:04:31;;;;;;;10.15;2.80;;;;;;;-146.64;100.00;86728.88;5069232;28;20028;-73
2022/07/16 03:06:57;;;;;;;5.37;2.50;;;;;;;-146.64;100.00;85403.56;5051918;28;20056;-73
2022/07/16 03:09:22;;;;;;;4.10;2.20;;;;;;;-146.64;100.00;85138.56;5056992;28;20349;-74
2022/07/16 03:11:47;;;;;;;9.93;2.50;;;;;;;-146.64;100.00;85403.56;5070627;28;20043;-73
2022/07/16 03:14:13;;;;;;;7.93;2.37;;;;;;;-146.64;100.00;84873.56;5069385;28;20020;-72
2022/07/16 03:16:38;;;;;;;5.80;2.00;;;;;;;-146.64;100.00;85138.56;5069412;28;20054;-73
2022/07/16 03:19:04;;;;;;;7.57;2.30;;;;;;;-146.64;100.00;86198.72;5052626;28;20033;-72
2022/07/16 03:21:29;;;;;;;8.43;1.80;;;;;;;-146.64;100.00;86728.88;5050412;28;20044;-73
2022/07/16 03:23:54;;;;;;;6.60;1.67;;;;;;;-146.64;100.00;87259.13;5034289;28;20020;-73
2022/07/16 03:26:20;;;;;;;7.60;1.73;;;;;;;-146.64;100.00;88319.81;5067906;28;20107;-74
2022/07/16 03:28:45;;;;;;;2.07;1.27;;;;;;;-146.64;100.00;89380.81;5071703;28;20183;-73
2022/07/16 03:31:10;;;;;;;8.60;1.60;;;;;;;-146.64;100.00;91503.59;5037619;28;20445;-72
2022/07/16 03:33:36;;;;;;;3.07;1.70;;;;;;;-146.64;100.00;92830.91;5052175;28;20032;-73
2022/07/16 03:36:01;;;;;;;3.80;1.50;;;;;;;-146.64;100.00;92565.41;5053872;28;20116;-73
2022/07/16 03:41:10;;;;;;;9.85;1.60;;;;;;;-146.64;100.00;94158.66;5071055;28;20063;-73
2022/07/16 03:43:36;;;;;;;3.30;1.40;;;;;;;-146.64;100.00;94689.88;5044876;28;20078;-73
2022/07/16 03:46:01;;;;;;;3.63;1.50;;;;;;;-146.64;100.00;95221.19;5052138;28;20517;-73
2022/07/16 03:48:27;;;;;;;3.30;1.30;;;;;;;-146.64;100.00;94689.88;5052202;28;20396;-73
2022/07/16 03:50:52;;;;;;;3.23;1.57;;;;;;;-146.64;100.00;93361.97;5031696;28;20048;-73
2022/07/16 03:53:17;;;;;;;1.60;1.50;;;;;;;-146.64;100.00;94689.88;5035556;28;20029;-74
2022/07/16 03:55:43;;;;;;;4.27;1.80;;;;;;;-146.64;100.00;95221.19;5050200;28;20064;-73
2022/07/16 03:58:08;;;;;;;2.67;1.27;;;;;;;-146.64;100.00;95486.84;5046212;28;20112;-74
2022/07/16 04:00:33;;;;;;;8.97;1.87;;;;;;;-146.64;100.00;96815.47;5050736;28;20033;-73
2022/07/16 04:02:59;;;;;;;4.17;1.33;;;;;;;-146.64;100.00;95486.84;5070080;28;20028;-73
2022/07/16 04:05:24;;;;;;;9.63;1.87;;;;;;;-146.64;100.00;97081.25;5063824;28;20024;-72
2022/07/16 04:07:50;;;;;;;4.63;1.60;;;;;;;-146.64;100.00;98942.19;5056537;28;20025;-73
2022/07/16 04:10:16;;;;;;;6.60;1.70;;;;;;;-146.64;100.00;99739.97;5043232;28;20333;-72
2022/07/16 04:12:41;;;;;;;2.40;1.47;;;;;;;-146.64;100.00;99739.97;5034169;28;20092;-73
2022/07/16 04:15:07;;;;;;;6.93;1.63;;;;;;;-146.64;100.00;99474.03;5042690;28;20017;-73
2022/07/16 04:17:32;;;;;;;5.20;1.53;;;;;;;-146.64;100.00;101336.06;5052106;28;20036;-75
2022/07/16 04:19:58;;;;;;;5.00;1.47;;;;;;;-146.64;100.00;101868.22;5040071;28;20107;-73
2022/07/16 04:22:23;;;;;;;3.43;1.40;;;;;;;-146.64;100.00;102134.31;5055654;28;20021;-72
2022/07/16 04:24:49;;;;;;;5.93;1.60;;;;;;;-146.64;100.00;102666.59;5068346;28;20311;-73
2022/07/16 04:27:14;;;;;;;4.77;1.47;;;;;;;-146.64;100.00;101602.13;5069147;28;20024;-74
2022/07/16 04:29:39;;;;;;;7.77;1.80;;;;;;;-146.64;100.00;102932.75;5069262;28;20036;-74
2022/07/16 04:32:05;;;;;;;5.63;1.80;;;;;;;-146.64;100.00;103198.94;5035342;28;20044;-73
2022/07/16 04:34:30;;;;;;;5.60;1.40;;;;;;;-146.64;100.00;102400.44;5043880;28;20031;-73
2022/07/16 04:36:56;;;;;;;5.70;1.47;;;;;;;-146.64;100.00;101602.13;5060858;28;20028;-73
2022/07/16 04:39:21;;;;;;;2.33;1.40;;;;;;;-146.64;100.00;101868.22;5060711;28;20021;-73
2022/07/16 04:41:46;;;;;;;3.63;1.50;;;;;;;-146.64;100.00;102666.59;5053634;28;20369;-74
2022/07/16 04:44:12;;;;;;;5.33;1.40;;;;;;;-146.64;100.00;102134.31;5065241;28;20442;-73
2022/07/16 04:46:37;;;;;;;2.67;1.13;;;;;;;-146.64;100.00;101868.22;5051636;28;20555;-74
2022/07/16 04:49:02;;;;;;;1.57;1.17;;;;;;;-146.64;100.00;101070.00;5065954;28;20391;-74
2022/07/16 04:51:28;;;;;;;8.50;1.80;;;;;;;-146.64;100.00;100537.94;5064310;28;20115;-72
2022/07/16 04:53:53;;;;;;;3.00;1.50;;;;;;;-146.64;100.00;99739.97;5047471;28;20032;-75
2022/07/16 04:56:18;;;;;;;3.43;1.87;;;;;;;-146.64;100.00;100271.94;5049821;28;20031;-75
2022/07/16 04:58:44;;;;;;;5.83;2.13;;;;;;;-146.64;100.00;100005.94;5043141;28;20199;-74
2022/07/16 05:01:09;;;;;;;3.90;1.30;;;;;;;-146.64;100.00;98410.41;5066707;28;20090;-74
2022/07/16 05:03:34;;;;;;;8.00;1.70;;;;;;;-146.64;100.00;98676.28;5037094;28;20159;-73
2022/07/16 05:06:00;;;;;;;2.97;1.40;;;;;;;-146.64;100.00;98942.19;5047972;28;20037;-76
2022/07/16 05:08:25;;;;;;;5.10;2.17;;;;;;;-146.64;100.00;98942.19;5065050;28;20039;-75
2022/07/16 05:10:50;;;;;;;5.63;1.70;;;;;;;-146.64;100.00;98676.28;5061954;28;20059;-74
2022/07/16 05:13:16;;;;;;;6.90;1.33;;;;;;;-146.64;100.00;95752.53;5046034;28;20440;-74
2022/07/16 05:15:41;;;;;;;2.90;1.37;;;;;;;-146.64;100.00;88850.28;5048962;28;20064;-74
2022/07/16 05:18:08;;;;;;;1.87;1.30;;;;;;;-146.64;100.00;88585.03;5066469;28;20043;-74
2022/07/16 05:20:33;;;;;;;2.85;1.17;;;;;;;-146.64;100.00;87259.13;5043119;28;20027;-74
2022/07/16 05:22:58;;;;;;;2.27;1.63;;;;;;;-146.64;100.00;79842.06;5042802;28;20037;-76
2022/07/16 05:25:24;;;;;;;3.07;1.30;;;;;;;-146.64;100.00;60305.66;5058741;28;20068;-75
2022/07/16 05:27:49;;;;;;;4.43;1.40;;;;;;;-146.64;100.00;35426.63;5057613;28;20029;-74
2022/07/16 05:30:15;;;;;;;3.33;1.40;;;;;;;-146.64;100.00;33750.44;5045677;28;20494;-74
2022/07/16 05:32:44;;;;;;;4.20;1.10;;;;;;;-146.64;100.00;34512.78;5050310;28;20028;-75
2022/07/16 05:35:11;;;;;;;6.00;1.33;;;;;;;-146.64;100.00;35322.34;5051294;28;20088;-75
2022/07/16 05:37:36;;;;;;;4.32;1.30;;;;;;;-146.64;100.00;35618.81;5053728;28;20375;-74
2022/07/16 05:40:01;;;;;;;4.43;1.23;;;;;;;-146.64;100.00;35692.41;5050783;28;20037;-75
2022/07/16 05:42:27;;;;;;;3.27;1.37;;;;;;;-146.64;100.00;35890.75;5042089;28;20048;-75
2022/07/16 05:44:52;;;;;;;4.27;1.17;;;;;;;-146.64;100.00;35931.66;5057237;28;20028;-75
2022/07/16 05:47:17;;;;;;;4.17;0.90;;;;;;;-146.64;100.00;36334.50;5039043;28;20036;-74
2022/07/16 05:49:43;;;;;;;5.73;1.23;;;;;;;-146.64;100.00;36418.34;5044105;28;20459;-75
2022/07/16 05:52:08;;;;;;;2.90;1.30;;;;;;;-146.64;100.00;36224.09;5048557;28;20395;-76
2022/07/16 05:54:33;;;;;;;4.93;1.10;;;;;;;-146.64;100.00;36604.47;5023035;28;20388;-73
2022/07/16 05:56:59;;;;;;;3.17;1.30;;;;;;;-146.64;100.00;36551.28;5046817;28;20499;-75
2022/07/16 05:59:24;;;;;;;3.77;1.20;;;;;;;-146.64;100.00;36665.81;5047330;28;20428;-75
2022/07/16 06:01:50;;;;;;;4.07;1.42;;;;;;;-146.64;97.17;36551.28;5067888;28;20491;-75
2022/07/16 06:04:15;;;;;;;4.18;1.20;;;;;;;-146.64;100.00;36759.91;5060670;28;20028;-75
2022/07/16 06:06:41;;;;;;;2.57;1.07;;;;;;;-146.64;100.00;36667.88;5049876;28;20397;-75
2022/07/16 06:09:07;;;;;;;3.83;1.23;;;;;;;-146.64;100.00;36545.16;5058603;28;20062;-75
2022/07/16 06:11:32;;;;;;;3.13;0.93;;;;;;;-146.64;99.88;36849.91;5054801;28;20111;-75
2022/07/16 06:13:57;;;;;;;2.77;0.87;;;;;;;-146.64;100.00;36907.16;5069304;28;20075;-75
2022/07/16 06:16:22;;;;;;;3.23;1.47;;;;;;;-146.64;100.00;36905.13;5053194;28;20031;-75
2022/07/16 06:18:48;;;;;;;3.73;1.33;;;;;;;-146.64;100.00;36860.13;5033699;28;20017;-75
2022/07/16 06:21:13;;;;;;;1.90;1.10;;;;;;;-146.64;100.00;36954.22;5057452;28;20033;-75
2022/07/16 06:23:39;;;;;;;2.00;0.87;;;;;;;-146.64;100.00;36991.03;5031973;28;20052;-75
2022/07/16 06:26:04;;;;;;;2.60;1.50;;;;;;;-146.64;98.53;36831.50;5049687;28;20052;-75
2022/07/16 06:28:29;;;;;;;5.80;1.73;;;;;;;-146.64;100.00;37046.25;5061621;28;20055;-77
2022/07/16 06:30:55;;;;;;;7.00;1.67;;;;;;;-146.64;95.18;36768.09;5050729;28;20079;-75
2022/07/16 06:33:20;;;;;;;3.00;1.10;;;;;;;-146.64;95.09;36941.94;5038010;28;20079;-75
2022/07/16 06:35:45;;;;;;;2.77;1.27;;;;;;;-146.64;97.00;36856.03;5057645;28;20119;-75
2022/07/16 06:38:11;;;;;;;3.90;1.20;;;;;;;-146.64;94.12;36954.22;5053161;28;20052;-76
2022/07/16 06:40:36;;;;;;;6.27;1.73;;;;;;;-146.64;87.97;36518.56;5042217;28;20036;-75
2022/07/16 06:43:01;;;;;;;5.07;1.80;;;;;;;-146.64;84.17;36559.47;5045003;28;20021;-75
2022/07/16 06:45:27;;;;;;;3.93;1.27;;;;;;;-146.64;80.86;36449.03;5049608;28;20028;-75
2022/07/16 06:47:52;;;;;;;2.10;1.03;;;;;;;-146.64;79.60;36608.56;5060773;28;20025;-75
2022/07/16 06:50:17;;;;;;;6.37;1.37;;;;;;;-146.64;79.40;36688.31;5039622;28;20036;-75
2022/07/16 06:52:43;;;;;;;7.77;1.93;;;;;;;-146.64;81.19;37062.63;5066694;28;20463;-75
2022/07/16 06:55:08;;;;;;;5.50;1.53;;;;;;;-146.64;82.52;36974.66;5039341;28;20380;-75
2022/07/16 06:57:33;;;;;;;3.88;1.25;;;;;;;-146.64;82.84;36858.06;5045852;28;20484;-75
2022/07/16 06:59:59;;;;;;;5.43;1.40;;;;;;;-146.64;82.05;36964.44;5036598;28;20543;-75
2022/07/16 07:02:25;;;;;;;3.17;1.25;;;;;;;-146.64;83.50;36723.09;5030430;28;20028;-75
2022/07/16 07:04:50;;;;;;;6.32;1.80;;;;;;;-146.64;81.64;36747.63;5042687;28;20037;-75
2022/07/16 07:07:15;;;;;;;4.97;1.80;;;;;;;-146.64;82.80;37013.53;5058874;28;20032;-76
2022/07/16 07:09:41;;;;;;;5.30;1.47;;;;;;;-146.64;82.62;36966.47;5039790;28;20028;-75
2022/07/16 07:12:06;;;;;;;5.83;1.40;;;;;;;-146.64;85.38;37185.34;5041518;28;20109;-76
2022/07/16 07:14:32;;;;;;;4.53;1.40;;;;;;;-146.64;82.96;37021.72;5052207;28;20048;-75
2022/07/16 07:16:57;;;;;;;6.60;1.60;;;;;;;-146.64;84.02;37164.88;5040717;28;20480;-75
2022/07/16 07:19:22;;;;;;;5.83;1.40;;;;;;;-146.64;84.20;37164.88;5030282;28;20047;-74
2022/07/16 07:21:47;;;;;;;5.40;1.77;;;;;;;-146.64;83.93;37181.25;5032177;28;20586;-75
2022/07/16 07:24:13;;;;;;;5.23;1.63;;;;;;;-146.64;82.59;37081.03;5051675;28;20515;-76
2022/07/16 07:26:38;;;;;;;4.07;2.20;;;;;;;-146.64;83.67;37164.88;5035784;28;20478;-75
2022/07/16 07:29:03;;;;;;;8.67;1.37;;;;;;;-146.64;81.49;37087.16;5048501;28;20032;-76
2022/07/16 07:31:29;;;;;;;5.10;1.50;;;;;;;-146.64;82.94;37093.28;5032687;28;20103;-75
2022/07/16 07:33:54;;;;;;;4.67;1.80;;;;;;;-146.64;80.81;37040.13;5042336;28;20495;-75
2022/07/16 07:36:19;;;;;;;5.70;1.40;;;;;;;-146.64;82.15;37238.53;5036911;28;20096;-75
2022/07/16 07:38:45;;;;;;;4.07;1.60;;;;;;;-146.64;81.01;37001.25;5059792;28;20029;-75
2022/07/16 07:41:10;;;;;;;3.30;1.50;;;;;;;-146.64;81.36;37054.44;5051831;28;20047;-76
2022/07/16 07:43:36;;;;;;;4.37;1.80;;;;;;;-146.64;77.50;36952.16;5049205;28;20037;-75
2022/07/16 07:46:01;;;;;;;5.33;1.40;;;;;;;-146.64;78.09;36903.06;5051119;28;20520;-76
2022/07/16 07:48:26;;;;;;;6.57;1.80;;;;;;;-146.64;76.60;36764.00;5037093;28;20055;-76
2022/07/16 07:50:52;;;;;;;6.77;2.00;;;;;;;-146.64;75.68;36790.59;5063001;28;20127;-76
2022/07/16 07:53:17;;;;;;;2.90;1.67;;;;;;;-146.64;75.64;36894.91;5058481;28;20029;-76
2022/07/16 07:55:42;;;;;;;5.57;1.50;;;;;;;-146.64;75.42;37021.72;5051469;28;20036;-76
2022/07/16 07:58:09;;;;;;;6.67;1.90;;;;;;;-146.64;77.04;37038.06;5066563;28;20036;-75
2022/07/16 08:00:35;;;;;;;4.45;1.40;;;;;;;-146.64;76.90;36841.72;5047895;28;20033;-75
2022/07/16 08:03:00;;;;;;;3.23;1.73;;;;;;;-146.64;76.74;36993.06;5063839;28;20020;-75
2022/07/16 08:05:25;;;;;;;6.83;2.47;;;;;;;-146.64;77.42;37162.84;5063739;28;20032;-75
2022/07/16 08:07:51;;;;;;;6.27;1.47;;;;;;;-146.64;81.18;37490.13;5053424;28;20107;-75
2022/07/16 08:10:16;;;;;;;5.47;1.40;;;;;;;-146.64;81.37;37400.13;5047707;28;20086;-75
2022/07/16 08:12:42;;;;;;;7.20;1.60;;;;;;;-146.64;81.98;37504.44;5036766;28;20463;-75
2022/07/16 08:15:09;;;;;;;5.70;1.60;;;;;;;-146.64;83.60;37340.81;5041498;28;20039;-76
2022/07/16 08:17:35;;;;;;;7.97;1.65;;;;;;;-146.64;80.95;37269.22;5016966;28;20098;-75
2022/07/16 08:20:00;;;;;;;10.83;1.90;;;;;;;-146.64;79.86;37373.53;5033199;28;20107;-76
2022/07/16 08:22:25;;;;;;;4.47;2.47;;;;;;;-146.64;77.71;37267.16;5018261;28;20136;-75
2022/07/16 08:27:35;;;;;;;5.88;1.42;;;;;;;-146.64;76.80;37072.84;5051168;28;20079;-75
2022/07/16 08:30:00;;;;;;;5.70;1.43;;;;;;;-146.64;76.35;37222.16;5050361;28;20496;-75
2022/07/16 08:32:25;;;;;;;3.37;1.27;;;;;;;-146.64;76.68;37185.34;5050205;28;20067;-74
2022/07/16 08:34:51;;;;;;;6.90;1.70;;;;;;;-146.64;74.07;37197.63;5067683;28;20392;-76
2022/07/16 08:37:35;;;;;;;8.23;2.30;;;;;;;-146.64;74.04;37209.88;5056132;28;20093;-77
2022/07/16 08:40:03;;;;;;;5.32;1.45;;;;;;;-146.64;73.67;37148.53;5032540;28;20155;-77
2022/07/16 08:42:30;;;;;;;3.35;1.20;;;;;;;-146.64;74.04;37148.53;5054296;28;20039;-74
2022/07/16 08:44:57;;;;;;;6.35;1.27;;;;;;;-146.64;73.48;37058.53;5044943;28;20024;-74
2022/07/16 08:47:22;;;;;;;5.40;1.55;;;;;;;-146.64;71.14;37136.25;5067947;28;20107;-72
2022/07/16 08:49:49;;;;;;;3.33;1.23;;;;;;;-146.64;70.66;37353.06;5053143;28;20028;-74
2022/07/16 08:52:14;;;;;;;5.43;1.23;;;;;;;-146.64;70.29;37177.16;5051655;28;20029;-77
2022/07/16 08:54:40;;;;;;;3.53;1.40;;;;;;;-146.64;70.40;37107.63;5052925;28;20368;-75
2022/07/16 08:57:08;;;;;;;7.30;1.60;;;;;;;-146.64;68.67;37136.25;5051343;28;20136;-78
2022/07/16 08:59:34;;;;;;;7.07;1.35;;;;;;;-146.64;68.98;37119.88;5053461;28;20043;-76
2022/07/16 09:01:59;;;;;;;3.17;1.17;;;;;;;-146.64;69.56;37197.63;5050120;28;20028;-76
2022/07/16 09:04:24;;;;;;;6.80;1.73;;;;;;;-146.64;69.18;37201.72;5066909;28;20029;-76
2022/07/16 09:06:50;;;;;;;3.83;1.40;;;;;;;-146.64;68.86;37230.34;5037086;28;20499;-75
2022/07/16 09:09:15;;;;;;;8.50;1.27;;;;;;;-146.64;69.35;37271.25;5040723;28;20033;-76
2022/07/16 09:11:42;;;;;;;5.47;1.07;;;;;;;-146.64;69.08;37152.63;5066215;28;20017;-75
2022/07/16 09:14:11;;;;;;;4.13;1.33;;;;;;;-146.64;66.14;36995.13;5039128;28;20029;-74
2022/07/16 09:16:39;;;;;;;4.68;1.50;;;;;;;-146.64;63.92;37099.44;5063364;28;20080;-76
2022/07/16 09:19:15;;;;;;;3.67;1.00;;;;;;;-146.64;64.19;37021.72;5047051;28;20040;-75
2022/07/16 09:22:05;;;;;;;4.80;1.00;;;;;;;-146.64;63.62;37369.44;5042960;28;20352;-73
2022/07/16 09:24:40;;;;;;;2.63;1.10;;;;;;;-146.64;66.46;37236.47;5068012;28;20036;-75
2022/07/16 09:27:17;;;;;;;4.13;1.23;;;;;;;-146.64;61.83;37054.44;5049787;28;20517;-76
2022/07/16 09:29:46;;;;;;;2.25;1.00;;;;;;;-146.64;60.14;37074.88;5069780;28;20115;-76
2022/07/16 09:32:12;;;;;;;1.48;0.98;;;;;;;-146.64;60.06;37089.22;5050849;28;20487;-75
2022/07/16 09:34:38;;;;;;;4.25;1.50;;;;;;;-146.64;58.62;36986.94;5044032;28;20029;-76
2022/07/16 09:37:07;;;;;;;3.57;1.40;;;;;;;-146.64;57.50;37001.25;5031875;28;20116;-75
2022/07/16 09:39:33;;;;;;;5.70;1.60;;;;;;;-146.64;56.88;36837.63;5068212;28;20025;-77
2022/07/16 09:42:00;;;;;;;2.42;1.15;;;;;;;-146.64;56.83;37009.44;5068924;28;20078;-75
2022/07/16 09:44:26;;;;;;;;;;;;;;;-146.64;58.02;36935.81;5050115;28;20047;-76
2022/07/16 09:46:59;;;;;;;4.25;1.30;;;;;;;-146.64;57.39;36913.31;5034753;28;19923;-75
2022/07/16 09:49:26;;;;;;;1.67;0.90;;;;;;;-146.64;58.21;36905.13;5049139;28;20484;-76
2022/07/16 09:51:52;;;;;;;5.03;1.17;;;;;;;-146.64;57.88;36964.44;5048546;28;20049;-75
2022/07/16 09:54:29;;;;;;;8.70;1.30;;;;;;;-146.64;56.68;36837.63;5049206;28;20020;-75
2022/07/16 09:57:28;;;;;;;6.80;1.20;;;;;;;-146.64;58.01;36776.25;5047901;28;20033;-76
2022/07/16 09:59:54;;;;;;;2.40;0.90;;;;;;;-146.64;56.90;36719.00;4986816;28;20080;-75
2022/07/16 10:02:20;;;;;;;4.57;1.00;;;;;;;-146.64;56.10;36653.56;5033344;28;20029;-75
2022/07/16 10:04:45;;;;;;;4.93;1.63;;;;;;;-146.64;56.21;36653.56;5044695;28;20048;-76
2022/07/16 10:07:10;;;;;;;3.47;1.13;;;;;;;-146.64;56.26;36598.34;5047275;28;20454;-76
2022/07/16 10:09:36;;;;;;;1.60;0.90;;;;;;;-146.64;55.26;36575.84;5047100;28;20033;-76
2022/07/16 10:12:08;;;;;;;2.73;1.07;;;;;;;-146.64;54.10;36833.53;5048805;28;20043;-75
2022/07/16 10:14:35;;;;;;;2.72;1.13;;;;;;;-146.64;54.96;36925.56;5025624;28;20476;-77
2022/07/16 10:17:13;;;;;;;4.35;1.35;;;;;;;-146.64;54.32;36690.38;5047561;28;20029;-76
2022/07/16 10:19:38;;;;;;;5.57;1.25;;;;;;;-146.64;54.83;36764.00;5047795;28;20029;-76
2022/07/16 10:22:19;;;;;;;1.70;1.00;;;;;;;-146.64;53.08;37070.78;5047671;28;20143;-75
2022/07/16 10:24:55;;;;;;;3.90;1.05;;;;;;;-146.64;52.27;36761.94;5048281;28;20032;-76
2022/07/16 10:27:32;;;;;;;3.30;1.10;;;;;;;-146.64;51.68;36463.34;5046206;28;20032;-75
2022/07/16 10:30:12;;;;;;;3.13;1.25;;;;;;;-146.64;51.99;36759.91;5029358;28;20404;-76
2022/07/16 10:33:00;;;;;;;7.10;1.00;;;;;;;-146.64;51.60;36647.41;5048249;28;20029;-76
2022/07/16 10:35:31;;;;;;;4.60;1.00;;;;;;;-146.64;51.59;36886.72;5047237;28;20029;-76
2022/07/16 10:38:21;;;;;;;3.03;0.90;;;;;;;-146.64;53.84;37070.78;5046385;28;20037;-76
2022/07/16 10:41:03;;;;;;;2.17;0.90;;;;;;;-146.64;54.80;37062.63;5048447;28;20040;-76
2022/07/16 10:43:29;;;;;;;1.98;1.00;;;;;;;-146.64;55.89;36941.94;5044638;28;20537;-76
2022/07/16 10:46:00;;;;;;;3.05;1.05;;;;;;;-146.64;53.65;36759.91;5048645;28;20033;-76
2022/07/16 10:48:27;;;;;;;4.07;1.08;;;;;;;-146.64;52.20;36543.09;5046595;28;20060;-76
2022/07/16 10:51:19;;;;;;;2.72;1.00;;;;;;;-146.64;53.29;36984.88;5047169;28;20032;-76
2022/07/16 10:54:03;;;;;;;3.03;1.05;;;;;;;-146.64;52.30;36704.69;5046377;28;20025;-76
2022/07/16 10:56:32;;;;;;;2.72;1.35;;;;;;;-146.64;51.33;36741.50;5045671;28;20040;-75
2022/07/16 10:58:58;;;;;;;2.25;1.10;;;;;;;-146.64;50.88;36751.72;5045314;28;20036;-75
2022/07/16 11:01:24;;;;;;;1.47;1.23;;;;;;;-146.64;51.01;36592.19;5042357;28;20037;-73
2022/07/16 11:03:52;;;;;;;1.95;1.27;;;;;;;-146.64;51.23;36350.88;5030127;28;20123;-75
2022/07/16 11:06:21;;;;;;;1.60;1.05;;;;;;;-146.64;53.78;37033.97;5047182;28;20037;-75
2022/07/16 11:08:52;;;;;;;1.27;0.95;;;;;;;-146.64;55.31;36827.41;5046686;28;20051;-76
2022/07/16 11:11:18;;;;;;;0.98;0.85;;;;;;;-146.64;54.42;36915.34;5040299;28;20033;-75
2022/07/16 11:13:43;;;;;;;1.23;0.80;;;;;;;-146.64;52.14;36657.63;5033239;28;20492;-75
2022/07/16 11:16:09;;;;;;;1.23;1.10;;;;;;;-146.64;49.34;36581.97;5043315;28;20167;-77
2022/07/16 11:18:38;;;;;;;2.00;0.80;;;;;;;-146.64;49.55;36588.09;5045899;28;20084;-75